Time;durP1;ratioP1;P1;durP2;ratioP2;P2;SDS_P1;SDS_P2;PMS_P1;PMS_P2;Temp;Humidity;BMP_temperature;BMP_pressure;BME280_temperature;BME280_humidity;BME280_pressure;Samples;Min_cycle;Max_cycle;Signal;HPM_P1;HPM_P2
2022/04/13 00:00:56;;;;;;;16.33;8.98;;;;;;;;;;5054388;28;20029;-47
2022/04/13 00:03:22;;;;;;;19.38;9.75;;;;;;;;;;5054491;28;20040;-46
2022/04/13 00:05:50;;;;;;;12.45;6.78;;;;;;;;;;5054426;28;20021;-44
2022/04/13 00:08:16;;;;;;;26.67;13.65;;;;;;;;;;5054169;28;20468;-47
2022/04/13 00:10:43;;;;;;;32.20;15.32;;;;;;;;;;5054254;28;20021;-40
2022/04/13 00:13:09;;;;;;;14.25;8.45;;;;;;;;;;5054524;28;20083;-39
2022/04/13 00:15:37;;;;;;;18.45;8.50;;;;;;;;;;5054171;28;20078;-41
2022/04/13 00:18:07;;;;;;;16.23;8.73;;;;;;;;;;5054221;28;20044;-46
2022/04/13 00:20:34;;;;;;;13.88;7.93;;;;;;;;;;5054080;28;20099;-43
2022/04/13 00:23:00;;;;;;;18.45;9.20;;;;;;;;;;5053875;28;20097;-45
2022/04/13 00:25:26;;;;;;;16.33;8.10;;;;;;;;;;5054286;28;20373;-47
2022/04/13 00:27:52;;;;;;;12.18;7.47;;;;;;;;;;5054087;28;20036;-47
2022/04/13 00:30:18;;;;;;;12.40;6.90;;;;;;;;;;5054067;28;20033;-40
2022/04/13 00:32:44;;;;;;;11.07;6.32;;;;;;;;;;5053900;28;20021;-47
2022/04/13 00:35:10;;;;;;;16.02;8.10;;;;;;;;;;5053976;28;20021;-44
2022/04/13 00:37:38;;;;;;;12.65;7.20;;;;;;;;;;5053483;28;20037;-43
2022/04/13 00:40:04;;;;;;;11.45;6.68;;;;;;;;;;5053637;28;20118;-47
2022/04/13 00:42:31;;;;;;;12.23;7.15;;;;;;;;;;5052647;28;20036;-42
2022/04/13 00:44:57;;;;;;;14.07;7.07;;;;;;;;;;5052670;28;20017;-46
2022/04/13 00:47:23;;;;;;;13.82;8.02;;;;;;;;;;5053447;28;20079;-40
2022/04/13 00:49:54;;;;;;;14.18;7.75;;;;;;;;;;5053676;28;20067;-40
2022/04/13 00:52:21;;;;;;;10.05;6.35;;;;;;;;;;5053448;28;20090;-40
2022/04/13 00:54:49;;;;;;;15.57;7.63;;;;;;;;;;5053427;28;20036;-40
2022/04/13 00:57:16;;;;;;;12.52;6.75;;;;;;;;;;5053661;28;20111;-40
2022/04/13 00:59:44;;;;;;;10.45;6.07;;;;;;;;;;5053425;28;20095;-40
2022/04/13 01:02:12;;;;;;;11.60;7.03;;;;;;;;;;5053435;28;20017;-40
2022/04/13 01:04:38;;;;;;;11.93;7.20;;;;;;;;;;5053382;28;20021;-40
2022/04/13 01:07:09;;;;;;;11.35;6.35;;;;;;;;;;5053251;28;20028;-40
2022/04/13 01:09:36;;;;;;;12.20;6.40;;;;;;;;;;5053442;28;20031;-40
2022/04/13 01:12:03;;;;;;;9.45;6.05;;;;;;;;;;5053439;28;20154;-40
2022/04/13 01:14:29;;;;;;;11.30;6.45;;;;;;;;;;5053591;28;20025;-40
2022/04/13 01:16:55;;;;;;;12.90;6.78;;;;;;;;;;5053402;28;20487;-39
2022/04/13 01:19:22;;;;;;;8.75;6.05;;;;;;;;;;5053107;28;20036;-39
2022/04/13 01:21:52;;;;;;;13.77;7.28;;;;;;;;;;5053652;28;20025;-40
2022/04/13 01:24:18;;;;;;;11.63;7.13;;;;;;;;;;5053352;28;20036;-40
2022/04/13 01:26:45;;;;;;;12.73;6.85;;;;;;;;;;5053135;28;20162;-39
2022/04/13 01:29:15;;;;;;;12.85;6.57;;;;;;;;;;5053279;28;20025;-39
2022/04/13 01:31:42;;;;;;;9.90;6.13;;;;;;;;;;5053094;28;20025;-39
2022/04/13 01:34:10;;;;;;;11.07;6.40;;;;;;;;;;5052992;28;20423;-42
2022/04/13 01:36:37;;;;;;;13.00;7.30;;;;;;;;;;5052981;28;20479;-39
2022/04/13 01:39:04;;;;;;;10.88;6.72;;;;;;;;;;5053051;28;20037;-41
2022/04/13 01:41:30;;;;;;;11.90;6.93;;;;;;;;;;5053054;28;20056;-39
2022/04/13 01:43:57;;;;;;;12.18;6.95;;;;;;;;;;5053038;28;20025;-40
2022/04/13 01:46:25;;;;;;;15.98;7.15;;;;;;;;;;5053020;28;20025;-40
2022/04/13 01:48:52;;;;;;;12.48;7.05;;;;;;;;;;5051557;28;20049;-41
2022/04/13 01:51:20;;;;;;;15.45;7.80;;;;;;;;;;5052777;28;20487;-41
2022/04/13 01:53:49;;;;;;;11.90;6.85;;;;;;;;;;5053008;28;20108;-41
2022/04/13 01:56:18;;;;;;;13.52;7.65;;;;;;;;;;5055425;28;20025;-39
2022/04/13 01:58:46;;;;;;;15.20;7.70;;;;;;;;;;5056779;28;20037;-39
2022/04/13 02:01:13;;;;;;;16.17;7.90;;;;;;;;;;5056846;28;20056;-40
2022/04/13 02:03:40;;;;;;;15.73;8.25;;;;;;;;;;5056798;28;20056;-40
2022/04/13 02:06:11;;;;;;;13.27;7.75;;;;;;;;;;5056791;28;20838;-41
2022/04/13 02:08:37;;;;;;;12.50;6.83;;;;;;;;;;5056764;28;20031;-40
2022/04/13 02:11:04;;;;;;;10.98;6.95;;;;;;;;;;5056675;28;20053;-40
2022/04/13 02:13:30;;;;;;;12.15;7.00;;;;;;;;;;5056477;28;20032;-39
2022/04/13 02:16:01;;;;;;;13.38;8.00;;;;;;;;;;5056408;28;20487;-40
2022/04/13 02:18:27;;;;;;;16.15;8.73;;;;;;;;;;5056335;28;20029;-42
2022/04/13 02:20:53;;;;;;;16.75;8.00;;;;;;;;;;5056597;28;20017;-46
2022/04/13 02:23:19;;;;;;;15.73;8.20;;;;;;;;;;5056361;28;20028;-46
2022/04/13 02:25:45;;;;;;;12.68;7.47;;;;;;;;;;5056560;28;20031;-45
2022/04/13 02:28:13;;;;;;;12.73;7.10;;;;;;;;;;5056480;28;20086;-44
2022/04/13 02:30:39;;;;;;;12.68;7.65;;;;;;;;;;5056756;28;20055;-45
2022/04/13 02:33:06;;;;;;;13.65;7.50;;;;;;;;;;5056185;28;20023;-45
2022/04/13 02:35:32;;;;;;;12.48;7.30;;;;;;;;;;5056270;28;20032;-45
2022/04/13 02:37:58;;;;;;;13.35;6.97;;;;;;;;;;5056000;28;20099;-45
2022/04/13 02:40:26;;;;;;;15.50;7.57;;;;;;;;;;5056100;28;20039;-46
2022/04/13 02:42:52;;;;;;;13.57;7.03;;;;;;;;;;5055876;28;20104;-45
2022/04/13 02:45:19;;;;;;;16.00;7.88;;;;;;;;;;5056118;28;20028;-45
2022/04/13 02:47:45;;;;;;;15.45;7.47;;;;;;;;;;5055749;28;20091;-41
2022/04/13 02:50:11;;;;;;;14.20;8.18;;;;;;;;;;5054692;28;20033;-45
2022/04/13 02:52:37;;;;;;;11.85;6.95;;;;;;;;;;5055986;28;20108;-48
2022/04/13 02:55:04;;;;;;;14.85;7.63;;;;;;;;;;5055896;28;20021;-44
2022/04/13 02:57:30;;;;;;;13.55;7.15;;;;;;;;;;5055846;28;20036;-44
2022/04/13 02:59:56;;;;;;;12.90;7.35;;;;;;;;;;5055589;28;20059;-47
2022/04/13 03:02:29;;;;;;;11.38;6.68;;;;;;;;;;5055648;28;20021;-45
2022/04/13 03:04:55;;;;;;;12.40;6.85;;;;;;;;;;5056002;28;20419;-44
2022/04/13 03:07:24;;;;;;;13.77;7.57;;;;;;;;;;5054586;28;20108;-45
2022/04/13 03:09:52;;;;;;;22.20;8.15;;;;;;;;;;5055694;28;20060;-42
2022/04/13 03:12:18;;;;;;;12.48;6.90;;;;;;;;;;5055766;28;20021;-43
2022/04/13 03:14:44;;;;;;;12.95;7.82;;;;;;;;;;5055489;28;20032;-45
2022/04/13 03:17:11;;;;;;;14.85;8.63;;;;;;;;;;5055497;28;20075;-44
2022/04/13 03:19:37;;;;;;;13.23;7.38;;;;;;;;;;5055230;28;20033;-44
2022/04/13 03:22:03;;;;;;;13.40;7.40;;;;;;;;;;5055193;28;20539;-43
2022/04/13 03:24:29;;;;;;;13.60;8.90;;;;;;;;;;5055412;28;20025;-46
2022/04/13 03:26:55;;;;;;;14.82;8.98;;;;;;;;;;5055218;28;20029;-40
2022/04/13 03:29:21;;;;;;;14.05;8.30;;;;;;;;;;5054169;28;20125;-41
2022/04/13 03:31:48;;;;;;;14.65;7.75;;;;;;;;;;5055102;28;20500;-45
2022/04/13 03:34:20;;;;;;;17.48;7.97;;;;;;;;;;5055029;28;20028;-44
2022/04/13 03:36:47;;;;;;;13.40;7.60;;;;;;;;;;5053988;28;20029;-45
2022/04/13 03:39:13;;;;;;;14.98;7.60;;;;;;;;;;5053639;28;20492;-45
2022/04/13 03:41:39;;;;;;;21.60;8.13;;;;;;;;;;5055016;28;20030;-45
2022/04/13 03:44:05;;;;;;;16.35;9.23;;;;;;;;;;5055047;28;20095;-42
2022/04/13 03:46:32;;;;;;;26.35;10.40;;;;;;;;;;5053840;28;20021;-44
2022/04/13 03:48:58;;;;;;;17.25;9.23;;;;;;;;;;5053782;28;20052;-43
2022/04/13 03:51:24;;;;;;;28.63;13.07;;;;;;;;;;5054889;28;20055;-40
2022/04/13 03:53:51;;;;;;;16.95;8.60;;;;;;;;;;5054751;28;20027;-46
2022/04/13 03:56:17;;;;;;;15.05;8.95;;;;;;;;;;5054649;28;20028;-43
2022/04/13 03:58:43;;;;;;;26.38;11.65;;;;;;;;;;5054829;28;20400;-44
2022/04/13 04:01:10;;;;;;;25.42;11.35;;;;;;;;;;5054680;28;20087;-44
2022/04/13 04:03:36;;;;;;;29.15;10.38;;;;;;;;;;5054655;28;20025;-44
2022/04/13 04:06:03;;;;;;;23.30;10.98;;;;;;;;;;5054548;28;20473;-46
2022/04/13 04:08:29;;;;;;;30.25;14.55;;;;;;;;;;5054499;28;20032;-47
2022/04/13 04:10:56;;;;;;;28.42;16.27;;;;;;;;;;5055047;28;20021;-40
2022/04/13 04:13:22;;;;;;;29.48;15.90;;;;;;;;;;5054205;28;20025;-44
2022/04/13 04:15:48;;;;;;;22.52;12.32;;;;;;;;;;5054241;28;20021;-43
2022/04/13 04:18:15;;;;;;;23.30;11.57;;;;;;;;;;5053900;28;20021;-44
2022/04/13 04:20:41;;;;;;;18.75;9.30;;;;;;;;;;5054179;28;20025;-46
2022/04/13 04:23:07;;;;;;;14.23;8.30;;;;;;;;;;5054391;28;20025;-46
2022/04/13 04:25:33;;;;;;;16.17;8.52;;;;;;;;;;5054211;28;20063;-46
2022/04/13 04:28:03;;;;;;;19.15;9.55;;;;;;;;;;5052745;28;20397;-44
2022/04/13 04:30:31;;;;;;;18.73;10.10;;;;;;;;;;5053952;28;20067;-44
2022/04/13 04:32:58;;;;;;;16.60;8.77;;;;;;;;;;5054068;28;20067;-41
2022/04/13 04:35:24;;;;;;;16.85;7.80;;;;;;;;;;5054107;28;20473;-44
2022/04/13 04:37:50;;;;;;;20.02;8.60;;;;;;;;;;5054260;28;20025;-40
2022/04/13 04:40:18;;;;;;;22.10;9.82;;;;;;;;;;5053884;28;20057;-45
2022/04/13 04:42:45;;;;;;;22.17;10.45;;;;;;;;;;5053033;28;20021;-38
2022/04/13 04:45:13;;;;;;;22.02;11.07;;;;;;;;;;5053901;28;20029;-42
2022/04/13 04:47:39;;;;;;;26.33;11.63;;;;;;;;;;5053669;28;20029;-41
2022/04/13 04:50:12;;;;;;;23.55;13.45;;;;;;;;;;5054121;28;20024;-42
2022/04/13 04:52:42;;;;;;;23.38;10.88;;;;;;;;;;5053886;28;20029;-39
2022/04/13 04:55:09;;;;;;;19.65;10.13;;;;;;;;;;5053570;28;20105;-44
2022/04/13 04:57:35;;;;;;;46.17;15.77;;;;;;;;;;5053702;28;20358;-41
2022/04/13 05:00:01;;;;;;;30.13;11.38;;;;;;;;;;5053538;28;20119;-45
2022/04/13 05:02:27;;;;;;;22.50;10.95;;;;;;;;;;5053655;28;20025;-44
2022/04/13 05:04:56;;;;;;;21.15;13.25;;;;;;;;;;5053249;28;20468;-44
2022/04/13 05:07:22;;;;;;;27.08;13.63;;;;;;;;;;5053552;28;20028;-44
2022/04/13 05:09:48;;;;;;;30.48;17.50;;;;;;;;;;5053434;28;20029;-41
2022/04/13 05:12:14;;;;;;;35.90;16.52;;;;;;;;;;5053696;28;20028;-42
2022/04/13 05:14:40;;;;;;;35.90;17.42;;;;;;;;;;5053403;28;20029;-42
2022/04/13 05:17:07;;;;;;;23.98;14.15;;;;;;;;;;5053236;28;20025;-41
2022/04/13 05:19:34;;;;;;;26.38;14.30;;;;;;;;;;5053508;28;20119;-44
2022/04/13 05:22:00;;;;;;;27.70;14.10;;;;;;;;;;5053385;28;20032;-44
2022/04/13 05:24:26;;;;;;;25.55;12.02;;;;;;;;;;5053457;28;20029;-45
2022/04/13 05:26:54;;;;;;;12.00;8.13;;;;;;;;;;5053104;28;20028;-42
2022/04/13 05:29:21;;;;;;;13.90;8.70;;;;;;;;;;5053476;28;20033;-42
2022/04/13 05:31:50;;;;;;;11.77;7.68;;;;;;;;;;5056637;28;20036;-44
2022/04/13 05:34:16;;;;;;;15.40;7.80;;;;;;;;;;5057292;28;20031;-45
2022/04/13 05:36:42;;;;;;;25.42;9.60;;;;;;;;;;5057342;28;20018;-43
2022/04/13 05:39:08;;;;;;;13.95;8.52;;;;;;;;;;5057152;28;20033;-45
2022/04/13 05:41:35;;;;;;;16.02;7.78;;;;;;;;;;5057164;28;20028;-42
2022/04/13 05:44:01;;;;;;;13.88;7.05;;;;;;;;;;5057050;28;20040;-42
2022/04/13 05:46:27;;;;;;;14.48;6.78;;;;;;;;;;5056916;28;20021;-45
2022/04/13 05:48:53;;;;;;;11.23;7.68;;;;;;;;;;5056735;28;20084;-43
2022/04/13 05:51:19;;;;;;;17.83;9.40;;;;;;;;;;5057022;28;20025;-51
2022/04/13 05:53:45;;;;;;;20.27;10.27;;;;;;;;;;5056844;28;20025;-45
2022/04/13 05:56:12;;;;;;;13.30;7.22;;;;;;;;;;5056776;28;20017;-47
2022/04/13 05:58:38;;;;;;;10.02;6.00;;;;;;;;;;5056828;28;20083;-41
2022/04/13 06:01:04;;;;;;;9.65;5.60;;;;;;;;;;5055560;28;20048;-46
2022/04/13 06:03:30;;;;;;;14.15;8.27;;;;;;;;;;5055456;28;20021;-51
2022/04/13 06:05:56;;;;;;;14.15;7.32;;;;;;;;;;5056780;28;20407;-44
2022/04/13 06:08:22;;;;;;;12.05;6.15;;;;;;;;;;5056885;28;20388;-41
2022/04/13 06:10:48;;;;;;;10.30;5.82;;;;;;;;;;5057015;28;20029;-42
2022/04/13 06:13:14;;;;;;;6.80;4.38;;;;;;;;;;5056743;28;20027;-43
2022/04/13 06:15:41;;;;;;;8.02;4.60;;;;;;;;;;5056451;28;20029;-40
2022/04/13 06:18:07;;;;;;;7.25;4.88;;;;;;;;;;5056396;28;20103;-40
2022/04/13 06:20:33;;;;;;;8.07;4.43;;;;;;;;;;5056411;28;20112;-40
2022/04/13 06:23:00;;;;;;;7.32;4.80;;;;;;;;;;5056505;28;20049;-43
2022/04/13 06:25:26;;;;;;;5.95;4.22;;;;;;;;;;5056613;28;20441;-43
2022/04/13 06:27:52;;;;;;;7.53;4.22;;;;;;;;;;5056228;28;20104;-41
2022/04/13 06:30:18;;;;;;;8.40;3.83;;;;;;;;;;5056273;28;20039;-41
2022/04/13 06:32:45;;;;;;;6.43;4.00;;;;;;;;;;5056136;28;20029;-42
2022/04/13 06:35:13;;;;;;;11.25;3.80;;;;;;;;;;5055980;28;20116;-39
2022/04/13 06:37:39;;;;;;;7.57;4.22;;;;;;;;;;5056045;28;20047;-41
2022/04/13 06:40:06;;;;;;;5.88;3.97;;;;;;;;;;5055840;28;20029;-43
2022/04/13 06:42:33;;;;;;;8.18;4.53;;;;;;;;;;5056035;28;20040;-40
2022/04/13 06:45:00;;;;;;;8.15;4.05;;;;;;;;;;5055989;28;20045;-46
2022/04/13 06:47:26;;;;;;;5.72;3.38;;;;;;;;;;5055801;28;20017;-45
2022/04/13 06:49:53;;;;;;;7.22;3.30;;;;;;;;;;5056071;28;20393;-44
2022/04/13 06:52:19;;;;;;;4.00;3.50;;;;;;;;;;5056177;28;20018;-46
2022/04/13 06:54:49;;;;;;;6.45;3.88;;;;;;;;;;5055899;28;20032;-42
2022/04/13 06:57:15;;;;;;;5.90;3.50;;;;;;;;;;5054493;28;20030;-39
2022/04/13 06:59:41;;;;;;;7.07;3.70;;;;;;;;;;5055521;28;20044;-42
2022/04/13 07:02:10;;;;;;;6.10;3.40;;;;;;;;;;5055680;28;20369;-43
2022/04/13 07:04:40;;;;;;;6.40;3.85;;;;;;;;;;5055871;28;20499;-44
2022/04/13 07:07:06;;;;;;;6.38;3.78;;;;;;;;;;5055591;28;20017;-43
2022/04/13 07:09:32;;;;;;;5.50;3.60;;;;;;;;;;5055508;28;20108;-40
2022/04/13 07:11:58;;;;;;;6.22;3.63;;;;;;;;;;5055766;28;20025;-44
2022/04/13 07:14:25;;;;;;;6.15;3.35;;;;;;;;;;5055851;28;20052;-39
2022/04/13 07:16:51;;;;;;;6.63;3.85;;;;;;;;;;5055513;28;20107;-49
2022/04/13 07:19:17;;;;;;;7.55;3.97;;;;;;;;;;5055379;28;20033;-45
2022/04/13 07:21:45;;;;;;;5.80;3.40;;;;;;;;;;5055417;28;20063;-45
2022/04/13 07:24:12;;;;;;;4.90;3.60;;;;;;;;;;5055410;28;20025;-46
2022/04/13 07:26:38;;;;;;;5.32;3.50;;;;;;;;;;5055350;28;20108;-46
2022/04/13 07:29:04;;;;;;;6.85;3.88;;;;;;;;;;5055428;28;20033;-45
2022/04/13 07:31:30;;;;;;;6.07;3.20;;;;;;;;;;5053625;28;20374;-47
2022/04/13 07:33:56;;;;;;;11.55;3.72;;;;;;;;;;5055173;28;20032;-46
2022/04/13 07:36:23;;;;;;;6.45;3.90;;;;;;;;;;5055300;28;20025;-44
2022/04/13 07:38:52;;;;;;;6.60;4.25;;;;;;;;;;5055302;28;20028;-45
2022/04/13 07:41:18;;;;;;;6.43;4.00;;;;;;;;;;5054906;28;20550;-46
2022/04/13 07:43:44;;;;;;;6.50;3.80;;;;;;;;;;5054897;28;20032;-47
2022/04/13 07:46:10;;;;;;;5.00;3.60;;;;;;;;;;5054758;28;20025;-43
2022/04/13 07:48:36;;;;;;;6.80;4.55;;;;;;;;;;5054671;28;20500;-45
2022/04/13 07:51:02;;;;;;;7.65;3.83;;;;;;;;;;5054984;28;20025;-46
2022/04/13 07:53:29;;;;;;;10.10;4.15;;;;;;;;;;5054407;28;20086;-42
2022/04/13 07:55:55;;;;;;;7.07;3.85;;;;;;;;;;5054645;28;20124;-42
2022/04/13 07:58:21;;;;;;;12.13;3.97;;;;;;;;;;5054512;28;20029;-47
2022/04/13 08:00:49;;;;;;;9.30;4.18;;;;;;;;;;5054466;28;20036;-46
2022/04/13 08:03:15;;;;;;;8.07;3.80;;;;;;;;;;5054636;28;20047;-48
2022/04/13 08:05:41;;;;;;;5.80;3.72;;;;;;;;;;5055066;28;20040;-41
2022/04/13 08:08:07;;;;;;;12.40;4.97;;;;;;;;;;5054732;28;20104;-47
2022/04/13 08:10:34;;;;;;;27.13;10.05;;;;;;;;;;5054196;28;20469;-48
2022/04/13 08:13:00;;;;;;;7.03;4.28;;;;;;;;;;5054436;28;20512;-45
2022/04/13 08:15:26;;;;;;;8.45;4.45;;;;;;;;;;5054276;28;20029;-50
2022/04/13 08:17:54;;;;;;;5.90;3.63;;;;;;;;;;5054394;28;20025;-46
2022/04/13 08:20:20;;;;;;;6.72;3.65;;;;;;;;;;5054498;28;20037;-48
2022/04/13 08:22:47;;;;;;;7.30;3.63;;;;;;;;;;5054357;28;20025;-44
2022/04/13 08:25:14;;;;;;;6.25;3.22;;;;;;;;;;5054078;28;20060;-42
2022/04/13 08:27:40;;;;;;;4.57;2.83;;;;;;;;;;5054060;28;20472;-47
2022/04/13 08:30:06;;;;;;;6.47;2.97;;;;;;;;;;5053971;28;20033;-48
2022/04/13 08:32:33;;;;;;;6.13;2.63;;;;;;;;;;5053899;28;20029;-42
2022/04/13 08:34:59;;;;;;;5.38;3.00;;;;;;;;;;5054092;28;20029;-45
2022/04/13 08:37:25;;;;;;;4.93;3.08;;;;;;;;;;5054256;28;20025;-45
2022/04/13 08:39:51;;;;;;;7.20;3.50;;;;;;;;;;5053961;28;20094;-43
2022/04/13 08:42:17;;;;;;;7.80;3.63;;;;;;;;;;5053896;28;20029;-42
2022/04/13 08:44:46;;;;;;;4.07;3.05;;;;;;;;;;5053903;28;20051;-44
2022/04/13 08:47:17;;;;;;;5.65;3.15;;;;;;;;;;5053732;28;20028;-43
2022/04/13 08:49:44;;;;;;;7.30;3.42;;;;;;;;;;5054045;28;20102;-41
2022/04/13 08:52:13;;;;;;;6.15;3.10;;;;;;;;;;5053741;28;20017;-46
2022/04/13 08:54:51;;;;;;;5.32;2.85;;;;;;;;;;5053577;28;20024;-46
2022/04/13 08:57:21;;;;;;;4.25;2.60;;;;;;;;;;5053643;28;20033;-48
2022/04/13 09:00:02;;;;;;;5.75;2.75;;;;;;;;;;5053772;28;20489;-47
2022/04/13 09:02:50;;;;;;;5.20;2.30;;;;;;;;;;5053557;28;20052;-47
2022/04/13 09:05:18;;;;;;;4.75;2.65;;;;;;;;;;5052669;28;20029;-41
2022/04/13 09:07:46;;;;;;;7.80;2.40;;;;;;;;;;5053818;28;20079;-41
2022/04/13 09:10:17;;;;;;;6.20;2.15;;;;;;;;;;5053693;28;20048;-41
2022/04/13 09:12:44;;;;;;;5.80;2.42;;;;;;;;;;5053587;28;20385;-41
2022/04/13 09:15:12;;;;;;;4.38;2.40;;;;;;;;;;5053509;28;20021;-41
2022/04/13 09:17:38;;;;;;;4.57;2.63;;;;;;;;;;5053376;28;20021;-42
2022/04/13 09:20:05;;;;;;;6.45;2.50;;;;;;;;;;5053468;28;20102;-47
2022/04/13 09:22:32;;;;;;;6.22;2.65;;;;;;;;;;5053361;28;20021;-41
2022/04/13 09:24:58;;;;;;;3.28;2.20;;;;;;;;;;5053560;28;20021;-40
2022/04/13 09:27:24;;;;;;;6.05;2.58;;;;;;;;;;5053385;28;20049;-47
2022/04/13 09:29:50;;;;;;;3.08;2.25;;;;;;;;;;5053416;28;20029;-49
2022/04/13 09:32:17;;;;;;;3.28;2.45;;;;;;;;;;5053259;28;20553;-41
2022/04/13 09:34:43;;;;;;;5.05;2.22;;;;;;;;;;5053243;28;20388;-40
2022/04/13 09:37:10;;;;;;;4.60;2.38;;;;;;;;;;5053112;28;20052;-42
2022/04/13 09:39:37;;;;;;;8.77;2.70;;;;;;;;;;5052945;28;20512;-41
2022/04/13 09:42:05;;;;;;;3.75;2.60;;;;;;;;;;5053153;28;20033;-42
2022/04/13 09:44:33;;;;;;;7.20;2.53;;;;;;;;;;5053034;28;20026;-43
2022/04/13 09:47:14;;;;;;;3.92;2.30;;;;;;;;;;5052989;28;20025;-44
2022/04/13 09:49:53;;;;;;;6.43;2.30;;;;;;;;;;5053011;28;20060;-43
2022/04/13 09:52:26;;;;;;;5.18;2.35;;;;;;;;;;5052848;28;20473;-41
2022/04/13 09:54:52;;;;;;;5.57;2.72;;;;;;;;;;5053240;28;20366;-44
2022/04/13 09:57:25;;;;;;;4.80;2.33;;;;;;;;;;5052997;28;20536;-41
2022/04/13 09:59:59;;;;;;;3.97;2.25;;;;;;;;;;5051528;28;20049;-47
2022/04/13 10:02:35;;;;;;;6.65;2.03;;;;;;;;;;5052783;28;20071;-42
2022/04/13 10:05:02;;;;;;;6.63;2.10;;;;;;;;;;5052718;28;20033;-42
2022/04/13 10:07:28;;;;;;;3.15;2.20;;;;;;;;;;5052764;28;20017;-47
2022/04/13 10:09:54;;;;;;;3.33;2.13;;;;;;;;;;5052661;28;20055;-41
2022/04/13 10:12:20;;;;;;;3.40;2.38;;;;;;;;;;5052870;28;20027;-41
2022/04/13 10:14:46;;;;;;;5.97;2.28;;;;;;;;;;5052892;28;20476;-42
2022/04/13 10:17:14;;;;;;;5.13;2.05;;;;;;;;;;5055151;28;20453;-41
2022/04/13 10:19:43;;;;;;;7.20;2.65;;;;;;;;;;5056300;28;20033;-41
2022/04/13 10:22:11;;;;;;;3.58;2.28;;;;;;;;;;5056481;28;20028;-41
2022/04/13 10:24:39;;;;;;;4.13;2.40;;;;;;;;;;5056460;28;20021;-40
2022/04/13 10:27:12;;;;;;;4.88;2.53;;;;;;;;;;5056278;28;20033;-41
2022/04/13 10:29:40;;;;;;;5.45;2.60;;;;;;;;;;5056442;28;20026;-42
2022/04/13 10:32:09;;;;;;;6.10;2.42;;;;;;;;;;5056291;28;20396;-41
2022/04/13 10:34:42;;;;;;;5.45;2.40;;;;;;;;;;5056161;28;20017;-43
2022/04/13 10:37:09;;;;;;;4.53;2.53;;;;;;;;;;5056255;28;20028;-40
2022/04/13 10:39:35;;;;;;;6.10;2.35;;;;;;;;;;5056314;28;20036;-40
2022/04/13 10:42:06;;;;;;;4.78;1.67;;;;;;;;;;5055976;28;20032;-43
2022/04/13 10:44:39;;;;;;;5.03;2.08;;;;;;;;;;5056386;28;20491;-43
2022/04/13 10:47:06;;;;;;;4.38;2.17;;;;;;;;;;5055895;28;20453;-41
2022/04/13 10:49:55;;;;;;;5.45;2.90;;;;;;;;;;5056026;28;20057;-48
2022/04/13 10:52:23;;;;;;;4.70;2.40;;;;;;;;;;5056340;28;20457;-42
2022/04/13 10:54:54;;;;;;;3.13;2.13;;;;;;;;;;5056017;28;20031;-43
2022/04/13 10:57:24;;;;;;;4.68;2.05;;;;;;;;;;5055983;28;20109;-41
2022/04/13 10:59:54;;;;;;;5.47;1.95;;;;;;;;;;5056242;28;20045;-45
2022/04/13 11:02:30;;;;;;;3.33;2.03;;;;;;;;;;5056116;28;20044;-42
2022/04/13 11:04:59;;;;;;;10.48;3.63;;;;;;;;;;5056022;28;20029;-40
2022/04/13 11:07:26;;;;;;;3.78;1.90;;;;;;;;;;5055779;28;20021;-43
2022/04/13 11:09:56;;;;;;;3.85;2.15;;;;;;;;;;5055574;28;20025;-42
2022/04/13 11:12:23;;;;;;;3.00;2.10;;;;;;;;;;5055427;28;20025;-46
2022/04/13 11:14:51;;;;;;;5.40;2.45;;;;;;;;;;5055877;28;20029;-45
2022/04/13 11:17:17;;;;;;;5.25;2.10;;;;;;;;;;5055641;28;20021;-42
2022/04/13 11:19:48;;;;;;;4.60;2.72;;;;;;;;;;5054023;28;20128;-46
2022/04/13 11:22:14;;;;;;;;;;;;;;;;;;5055755;28;20025;-41
2022/04/13 11:24:42;;;;;;;9.50;2.90;;;;;;;;;;5055226;28;20391;-43
2022/04/13 11:27:11;;;;;;;5.57;2.20;;;;;;;;;;5055142;28;20031;-44
2022/04/13 11:29:39;;;;;;;3.15;1.85;;;;;;;;;;5054792;28;20029;-45
2022/04/13 11:32:06;;;;;;;4.20;2.05;;;;;;;;;;5055115;28;20029;-45
2022/04/13 11:34:37;;;;;;;6.18;2.25;;;;;;;;;;5055137;28;20508;-41
2022/04/13 11:37:09;;;;;;;7.40;1.97;;;;;;;;;;5054971;28;20111;-45
2022/04/13 11:39:48;;;;;;;6.28;2.30;;;;;;;;;;5053485;28;20029;-43
2022/04/13 11:42:22;;;;;;;3.08;1.80;;;;;;;;;;5055061;28;20052;-45
2022/04/13 11:44:49;;;;;;;2.38;1.73;;;;;;;;;;5054823;28;20029;-48
2022/04/13 11:47:16;;;;;;;3.65;1.98;;;;;;;;;;5054720;28;20029;-42
2022/04/13 11:50:00;;;;;;;3.65;2.15;;;;;;;;;;5054895;28;20029;-42
2022/04/13 11:53:01;;;;;;;2.53;1.80;;;;;;;;;;5054630;28;20465;-42
2022/04/13 11:55:40;;;;;;;6.85;2.00;;;;;;;;;;5032592;28;20128;-42
2022/04/13 11:58:08;;;;;;;5.75;2.08;;;;;;;;;;5032671;28;20065;-42
2022/04/13 12:00:41;;;;;;;3.20;1.88;;;;;;;;;;5032514;28;20045;-45
2022/04/13 12:03:11;;;;;;;7.32;2.83;;;;;;;;;;5032588;28;20481;-43
2022/04/13 12:05:43;;;;;;;6.53;2.88;;;;;;;;;;5032551;28;20040;-43
2022/04/13 12:08:32;;;;;;;5.72;2.00;;;;;;;;;;5032734;28;20108;-46
2022/04/13 12:11:03;;;;;;;6.90;2.28;;;;;;;;;;4954315;29;20086;-42
2022/04/13 12:13:33;;;;;;;3.77;2.13;;;;;;;;;;4954427;28;20039;-42
2022/04/13 12:15:59;;;;;;;4.22;2.63;;;;;;;;;;4954146;28;20043;-50
2022/04/13 12:18:29;;;;;;;2.53;1.83;;;;;;;;;;4954198;29;20090;-45
2022/04/13 12:21:10;;;;;;;2.83;1.95;;;;;;;;;;4954086;28;20046;-43
2022/04/13 12:23:36;;;;;;;;;;;;;;;;;;4954751;29;20037;-40
2022/04/13 12:26:02;;;;;;;4.10;1.80;;;;;;;;;;4954019;28;19919;-45
2022/04/13 12:28:31;;;;;;;4.10;2.30;;;;;;;;;;4957117;28;20551;-43
2022/04/13 12:31:01;;;;;;;4.88;2.20;;;;;;;;;;4992691;28;20062;-44
2022/04/13 12:33:28;;;;;;;2.80;2.17;;;;;;;;;;4992737;28;20054;-45
2022/04/13 12:35:54;;;;;;;5.97;2.85;;;;;;;;;;4992566;28;20513;-50
2022/04/13 12:38:24;;;;;;;4.60;2.05;;;;;;;;;;4992534;28;20446;-44
2022/04/13 12:41:00;;;;;;;5.13;1.90;;;;;;;;;;4992320;28;20050;-49
2022/04/13 12:43:26;;;;;;;7.20;3.17;;;;;;;;;;4992451;28;20022;-43
2022/04/13 12:45:52;;;;;;;4.68;2.30;;;;;;;;;;4992523;28;20038;-44
2022/04/13 12:48:24;;;;;;;8.90;2.30;;;;;;;;;;5029868;28;20095;-46
2022/04/13 12:50:50;;;;;;;;;;;;;;;;;;5054178;28;20055;-39
2022/04/13 12:53:16;;;;;;;4.47;2.03;;;;;;;;;;5053691;28;19905;-41
2022/04/13 12:55:50;;;;;;;3.13;1.90;;;;;;;;;;5053945;28;20434;-44
2022/04/13 12:58:16;;;;;;;3.45;2.30;;;;;;;;;;5053450;28;20031;-41
2022/04/13 13:00:50;;;;;;;5.75;2.65;;;;;;;;;;5053768;28;20041;-43
2022/04/13 13:03:16;;;;;;;3.58;2.20;;;;;;;;;;5053842;28;20017;-42
2022/04/13 13:05:45;;;;;;;5.50;3.88;;;;;;;;;;5053514;28;20518;-45
2022/04/13 13:08:11;;;;;;;11.00;4.97;;;;;;;;;;5053487;28;20044;-42
2022/04/13 13:10:38;;;;;;;17.27;8.55;;;;;;;;;;5052362;28;20025;-48
2022/04/13 13:13:11;;;;;;;9.02;4.82;;;;;;;;;;5051541;28;20028;-47
2022/04/13 13:15:38;;;;;;;25.25;12.90;;;;;;;;;;5050580;28;20457;-45
2022/04/13 13:18:05;;;;;;;20.17;11.07;;;;;;;;;;5052833;28;20104;-48
2022/04/13 13:20:31;;;;;;;24.35;13.25;;;;;;;;;;5050947;28;20033;-45
2022/04/13 13:22:57;;;;;;;12.88;8.77;;;;;;;;;;5052746;28;20108;-43
2022/04/13 13:25:26;;;;;;;8.95;4.85;;;;;;;;;;5053036;28;20404;-45
2022/04/13 13:27:57;;;;;;;26.38;13.32;;;;;;;;;;5052977;28;20576;-45
2022/04/13 13:30:23;;;;;;;;;;;;;;;;;;5053068;28;20037;-43
2022/04/13 13:32:53;;;;;;;9.27;5.88;;;;;;;;;;5052318;28;19991;-46
2022/04/13 13:35:21;;;;;;;14.25;6.53;;;;;;;;;;5051934;28;20095;-48
2022/04/13 13:37:50;;;;;;;21.75;14.15;;;;;;;;;;5052217;28;20052;-44
2022/04/13 13:40:33;;;;;;;22.77;12.10;;;;;;;;;;5051627;28;20041;-46
2022/04/13 13:43:00;;;;;;;75.53;43.03;;;;;;;;;;5050516;28;20028;-42
2022/04/13 13:45:30;;;;;;;34.55;18.88;;;;;;;;;;5048482;28;20373;-46
2022/04/13 13:47:56;;;;;;;26.60;14.63;;;;;;;;;;5051063;28;20041;-49
2022/04/13 13:50:22;;;;;;;16.83;11.05;;;;;;;;;;5051696;28;20035;-48
2022/04/13 13:52:49;;;;;;;35.67;20.38;;;;;;;;;;5055663;28;20104;-45
2022/04/13 13:55:25;;;;;;;33.03;16.60;;;;;;;;;;5056580;28;20384;-50
2022/04/13 13:57:51;;;;;;;30.88;16.40;;;;;;;;;;5056244;28;20040;-47
2022/04/13 14:00:20;;;;;;;30.00;17.50;;;;;;;;;;5056529;28;20033;-48
2022/04/13 14:02:52;;;;;;;37.00;18.58;;;;;;;;;;5045437;28;20370;-46
2022/04/13 14:05:19;;;;;;;13.40;7.22;;;;;;;;;;5021564;28;20035;-47
2022/04/13 14:07:46;;;;;;;8.70;5.05;;;;;;;;;;5021436;28;20028;-43
2022/04/13 14:10:12;;;;;;;22.02;12.45;;;;;;;;;;5021636;28;20108;-45
2022/04/13 14:12:38;;;;;;;30.52;16.83;;;;;;;;;;5021108;28;20055;-48
2022/04/13 14:15:04;;;;;;;17.30;8.55;;;;;;;;;;5021283;28;21003;-46
2022/04/13 14:17:31;;;;;;;29.20;15.98;;;;;;;;;;5021046;28;20480;-45
2022/04/13 14:19:57;;;;;;;16.00;8.55;;;;;;;;;;5020853;28;20040;-46
2022/04/13 14:22:23;;;;;;;24.80;15.32;;;;;;;;;;5021170;28;20040;-46
2022/04/13 14:24:49;;;;;;;13.57;6.90;;;;;;;;;;5020770;28;20405;-44
2022/04/13 14:27:15;;;;;;;10.10;6.68;;;;;;;;;;5020830;28;20033;-44
2022/04/13 14:29:41;;;;;;;17.55;9.70;;;;;;;;;;5020155;28;20033;-44
2022/04/13 14:32:07;;;;;;;27.45;15.85;;;;;;;;;;5032868;28;20094;-47
2022/04/13 14:34:33;;;;;;;47.47;22.55;;;;;;;;;;5025691;28;20018;-45
2022/04/13 14:37:00;;;;;;;9.30;5.13;;;;;;;;;;5023835;28;20347;-44
2022/04/13 14:39:26;;;;;;;12.40;4.85;;;;;;;;;;5024777;28;20025;-44